sensor_id;sensor_type;location;lat;lon;timestamp;pressure;altitude;pressure_sealevel;temperature;humidity
4133;BME280;2080;51.038;7.008;2022-08-20T00:00:31;74720.28;;;-142.53;100.00
4133;BME280;2080;51.038;7.008;2022-08-20T00:03:09;74716.38;;;-142.53;100.00
4133;BME280;2080;51.038;7.008;2022-08-20T00:05:43;74716.38;;;-142.53;100.00
4133;BME280;2080;51.038;7.008;2022-08-20T00:08:09;74720.28;;;-142.53;100.00
4133;BME280;2080;51.038;7.008;2022-08-20T00:10:43;74726.09;;;-142.53;100.00
4133;BME280;2080;51.038;7.008;2022-08-20T00:13:12;74722.22;;;-142.53;100.00
4133;BME280;2080;51.038;7.008;2022-08-20T00:15:40;74733.84;;;-142.53;100.00
4133;BME280;2080;51.038;7.008;2022-08-20T00:18:06;74728.03;;;-142.53;100.00
4133;BME280;2080;51.038;7.008;2022-08-20T00:20:36;74728.03;;;-142.53;100.00
4133;BME280;2080;51.038;7.008;2022-08-20T00:23:04;74724.16;;;-142.53;100.00
4133;BME280;2080;51.038;7.008;2022-08-20T00:25:30;74724.16;;;-142.53;100.00
4133;BME280;2080;51.038;7.008;2022-08-20T00:27:57;74728.03;;;-142.53;100.00
4133;BME280;2080;51.038;7.008;2022-08-20T00:30:23;74747.44;;;-142.53;100.00
4133;BME280;2080;51.038;7.008;2022-08-20T00:32:52;74766.88;;;-142.53;100.00
4133;BME280;2080;51.038;7.008;2022-08-20T00:35:24;74770.75;;;-142.53;100.00
4133;BME280;2080;51.038;7.008;2022-08-20T00:37:51;74778.50;;;-142.53;100.00
4133;BME280;2080;51.038;7.008;2022-08-20T00:40:20;74786.28;;;-142.53;100.00
4133;BME280;2080;51.038;7.008;2022-08-20T00:42:52;74788.22;;;-142.53;100.00
4133;BME280;2080;51.038;7.008;2022-08-20T00:45:20;74786.28;;;-142.53;100.00
4133;BME280;2080;51.038;7.008;2022-08-20T00:47:48;74797.94;;;-142.53;100.00
4133;BME280;2080;51.038;7.008;2022-08-20T00:50:18;74794.03;;;-142.53;100.00
4133;BME280;2080;51.038;7.008;2022-08-20T00:52:49;74797.94;;;-142.53;100.00
4133;BME280;2080;51.038;7.008;2022-08-20T00:55:17;74794.03;;;-142.53;100.00
4133;BME280;2080;51.038;7.008;2022-08-20T00:57:49;74795.97;;;-142.53;100.00
4133;BME280;2080;51.038;7.008;2022-08-20T01:00:33;74794.03;;;-142.53;100.00
4133;BME280;2080;51.038;7.008;2022-08-20T01:03:00;74794.03;;;-142.53;100.00
4133;BME280;2080;51.038;7.008;2022-08-20T01:05:28;74811.50;;;-142.53;100.00
4133;BME280;2080;51.038;7.008;2022-08-20T01:07:54;74821.22;;;-142.53;100.00
4133;BME280;2080;51.038;7.008;2022-08-20T01:10:27;74821.22;;;-142.53;100.00
4133;BME280;2080;51.038;7.008;2022-08-20T01:12:59;74836.75;;;-142.53;100.00
4133;BME280;2080;51.038;7.008;2022-08-20T01:15:29;74830.94;;;-142.53;100.00
4133;BME280;2080;51.038;7.008;2022-08-20T01:17:57;74832.88;;;-142.53;100.00
4133;BME280;2080;51.038;7.008;2022-08-20T01:25:56;74809.56;;;-142.53;100.00
4133;BME280;2080;51.038;7.008;2022-08-20T01:31:28;74794.03;;;-142.53;100.00
4133;BME280;2080;51.038;7.008;2022-08-20T01:33:56;74805.69;;;-142.53;100.00
4133;BME280;2080;51.038;7.008;2022-08-20T01:36:29;74794.03;;;-142.53;100.00
4133;BME280;2080;51.038;7.008;2022-08-20T01:38:57;74790.16;;;-142.53;100.00
4133;BME280;2080;51.038;7.008;2022-08-20T01:41:39;74784.34;;;-142.53;100.00
4133;BME280;2080;51.038;7.008;2022-08-20T01:44:08;74799.88;;;-142.53;100.00
4133;BME280;2080;51.038;7.008;2022-08-20T01:46:39;74832.88;;;-142.53;100.00
4133;BME280;2080;51.038;7.008;2022-08-20T01:49:34;74863.94;;;-142.53;100.00
4133;BME280;2080;51.038;7.008;2022-08-20T01:52:01;74891.13;;;-142.53;100.00
4133;BME280;2080;51.038;7.008;2022-08-20T01:54:31;74896.94;;;-142.53;100.00
4133;BME280;2080;51.038;7.008;2022-08-20T01:57:09;74906.66;;;-142.53;100.00
4133;BME280;2080;51.038;7.008;2022-08-20T01:59:38;74900.81;;;-142.53;100.00
4133;BME280;2080;51.038;7.008;2022-08-20T02:02:07;74883.34;;;-142.53;100.00
4133;BME280;2080;51.038;7.008;2022-08-20T02:04:33;74879.47;;;-142.53;100.00
4133;BME280;2080;51.038;7.008;2022-08-20T02:07:01;74858.09;;;-142.53;100.00
4133;BME280;2080;51.038;7.008;2022-08-20T02:09:34;74836.75;;;-142.53;100.00
4133;BME280;2080;51.038;7.008;2022-08-20T02:12:01;74846.47;;;-142.53;100.00
4133;BME280;2080;51.038;7.008;2022-08-20T02:14:29;74844.53;;;-142.53;100.00
4133;BME280;2080;51.038;7.008;2022-08-20T02:16:55;74848.41;;;-142.53;100.00
4133;BME280;2080;51.038;7.008;2022-08-20T02:19:39;74848.41;;;-142.53;100.00
4133;BME280;2080;51.038;7.008;2022-08-20T02:22:32;74860.06;;;-142.53;100.00
4133;BME280;2080;51.038;7.008;2022-08-20T02:24:58;74858.09;;;-142.53;100.00
4133;BME280;2080;51.038;7.008;2022-08-20T02:27:24;74860.06;;;-142.53;100.00
4133;BME280;2080;51.038;7.008;2022-08-20T02:29:50;74860.06;;;-142.53;100.00
4133;BME280;2080;51.038;7.008;2022-08-20T02:32:19;74871.69;;;-142.53;100.00
4133;BME280;2080;51.038;7.008;2022-08-20T02:34:44;74883.34;;;-142.53;100.00
4133;BME280;2080;51.038;7.008;2022-08-20T02:37:12;74891.13;;;-142.53;100.00
4133;BME280;2080;51.038;7.008;2022-08-20T02:39:43;74891.13;;;-142.53;100.00
4133;BME280;2080;51.038;7.008;2022-08-20T02:42:09;74902.75;;;-142.53;100.00
4133;BME280;2080;51.038;7.008;2022-08-20T02:44:39;74906.66;;;-142.53;100.00
4133;BME280;2080;51.038;7.008;2022-08-20T02:47:07;74879.47;;;-142.53;100.00
4133;BME280;2080;51.038;7.008;2022-08-20T02:49:35;74858.09;;;-142.53;100.00
4133;BME280;2080;51.038;7.008;2022-08-20T02:52:00;74850.34;;;-142.53;100.00
4133;BME280;2080;51.038;7.008;2022-08-20T02:54:26;74838.69;;;-142.53;100.00
4133;BME280;2080;51.038;7.008;2022-08-20T02:56:51;74836.75;;;-142.53;100.00
4133;BME280;2080;51.038;7.008;2022-08-20T02:59:17;74840.63;;;-142.53;100.00
4133;BME280;2080;51.038;7.008;2022-08-20T03:01:45;74840.63;;;-142.53;100.00
4133;BME280;2080;51.038;7.008;2022-08-20T03:04:12;74848.41;;;-142.53;100.00
4133;BME280;2080;51.038;7.008;2022-08-20T03:06:37;74832.88;;;-142.53;100.00
4133;BME280;2080;51.038;7.008;2022-08-20T03:09:03;74817.34;;;-142.53;100.00
4133;BME280;2080;51.038;7.008;2022-08-20T03:11:30;74829.00;;;-142.53;100.00
4133;BME280;2080;51.038;7.008;2022-08-20T03:13:56;74817.34;;;-142.53;100.00
4133;BME280;2080;51.038;7.008;2022-08-20T03:16:22;74817.34;;;-142.53;100.00
4133;BME280;2080;51.038;7.008;2022-08-20T03:18:50;74817.34;;;-142.53;100.00
4133;BME280;2080;51.038;7.008;2022-08-20T03:21:15;74809.56;;;-142.53;100.00
4133;BME280;2080;51.038;7.008;2022-08-20T03:23:41;74809.56;;;-142.53;100.00
4133;BME280;2080;51.038;7.008;2022-08-20T03:26:09;74817.34;;;-142.53;100.00
4133;BME280;2080;51.038;7.008;2022-08-20T03:28:38;74821.22;;;-142.53;100.00
4133;BME280;2080;51.038;7.008;2022-08-20T03:31:04;74813.47;;;-142.53;100.00
4133;BME280;2080;51.038;7.008;2022-08-20T03:33:30;74803.75;;;-142.53;100.00
4133;BME280;2080;51.038;7.008;2022-08-20T03:36:00;74794.03;;;-142.53;100.00
4133;BME280;2080;51.038;7.008;2022-08-20T03:38:28;74786.28;;;-142.53;100.00
4133;BME280;2080;51.038;7.008;2022-08-20T03:40:53;74799.88;;;-142.53;100.00
4133;BME280;2080;51.038;7.008;2022-08-20T03:43:21;74817.34;;;-142.53;100.00
4133;BME280;2080;51.038;7.008;2022-08-20T03:45:49;74829.00;;;-142.53;100.00
4133;BME280;2080;51.038;7.008;2022-08-20T03:48:18;74829.00;;;-142.53;100.00
4133;BME280;2080;51.038;7.008;2022-08-20T03:50:45;74840.63;;;-142.53;100.00
4133;BME280;2080;51.038;7.008;2022-08-20T03:53:12;74844.53;;;-142.53;100.00
4133;BME280;2080;51.038;7.008;2022-08-20T03:55:41;74852.28;;;-142.53;100.00
4133;BME280;2080;51.038;7.008;2022-08-20T03:58:10;74860.06;;;-142.53;100.00
4133;BME280;2080;51.038;7.008;2022-08-20T04:00:49;74848.41;;;-142.53;100.00
4133;BME280;2080;51.038;7.008;2022-08-20T04:03:15;74860.06;;;-142.53;100.00
4133;BME280;2080;51.038;7.008;2022-08-20T04:05:44;74871.69;;;-142.53;100.00
4133;BME280;2080;51.038;7.008;2022-08-20T04:08:16;74860.06;;;-142.53;100.00
4133;BME280;2080;51.038;7.008;2022-08-20T04:10:43;74844.53;;;-142.53;100.00
4133;BME280;2080;51.038;7.008;2022-08-20T04:13:09;74844.53;;;-142.53;100.00
4133;BME280;2080;51.038;7.008;2022-08-20T04:15:37;74842.59;;;-142.53;100.00
4133;BME280;2080;51.038;7.008;2022-08-20T04:18:06;74840.63;;;-142.53;100.00
4133;BME280;2080;51.038;7.008;2022-08-20T04:20:33;74838.69;;;-142.53;100.00
4133;BME280;2080;51.038;7.008;2022-08-20T04:23:01;74827.03;;;-142.53;100.00
4133;BME280;2080;51.038;7.008;2022-08-20T04:25:30;74821.22;;;-142.53;100.00
4133;BME280;2080;51.038;7.008;2022-08-20T04:27:58;74834.81;;;-142.53;100.00
4133;BME280;2080;51.038;7.008;2022-08-20T04:30:24;74852.28;;;-142.53;100.00
4133;BME280;2080;51.038;7.008;2022-08-20T04:32:50;74852.28;;;-142.53;100.00
4133;BME280;2080;51.038;7.008;2022-08-20T04:35:18;74830.94;;;-142.53;100.00
4133;BME280;2080;51.038;7.008;2022-08-20T04:37:45;74827.03;;;-142.53;100.00
4133;BME280;2080;51.038;7.008;2022-08-20T04:40:15;74832.88;;;-142.53;100.00
4133;BME280;2080;51.038;7.008;2022-08-20T04:42:59;74840.63;;;-142.53;100.00
4133;BME280;2080;51.038;7.008;2022-08-20T04:45:27;74848.41;;;-142.53;100.00
4133;BME280;2080;51.038;7.008;2022-08-20T04:47:59;74860.06;;;-142.53;100.00
4133;BME280;2080;51.038;7.008;2022-08-20T04:50:31;74856.16;;;-142.53;100.00
4133;BME280;2080;51.038;7.008;2022-08-20T04:53:06;74860.06;;;-142.53;100.00
4133;BME280;2080;51.038;7.008;2022-08-20T04:55:32;74863.94;;;-142.53;100.00
4133;BME280;2080;51.038;7.008;2022-08-20T04:58:05;74863.94;;;-142.53;100.00
4133;BME280;2080;51.038;7.008;2022-08-20T05:00:32;74879.47;;;-142.53;100.00
4133;BME280;2080;51.038;7.008;2022-08-20T05:03:00;74896.94;;;-142.53;100.00
4133;BME280;2080;51.038;7.008;2022-08-20T05:05:26;74922.19;;;-142.53;100.00
4133;BME280;2080;51.038;7.008;2022-08-20T05:07:52;74939.66;;;-142.53;100.00
4133;BME280;2080;51.038;7.008;2022-08-20T05:10:22;74935.78;;;-142.53;100.00
4133;BME280;2080;51.038;7.008;2022-08-20T05:12:48;74953.25;;;-142.53;100.00
4133;BME280;2080;51.038;7.008;2022-08-20T05:15:14;74961.00;;;-142.53;100.00
4133;BME280;2080;51.038;7.008;2022-08-20T05:17:40;74959.06;;;-142.53;100.00
4133;BME280;2080;51.038;7.008;2022-08-20T05:20:10;74947.41;;;-142.53;100.00
4133;BME280;2080;51.038;7.008;2022-08-20T05:22:38;74951.31;;;-142.53;100.00
4133;BME280;2080;51.038;7.008;2022-08-20T05:25:04;74964.88;;;-142.53;100.00
4133;BME280;2080;51.038;7.008;2022-08-20T05:27:30;74970.72;;;-142.53;100.00
4133;BME280;2080;51.038;7.008;2022-08-20T05:30:01;74972.66;;;-142.53;100.00
4133;BME280;2080;51.038;7.008;2022-08-20T05:32:31;74972.66;;;-142.53;100.00
4133;BME280;2080;51.038;7.008;2022-08-20T05:35:02;74966.84;;;-142.53;100.00
4133;BME280;2080;51.038;7.008;2022-08-20T05:37:30;74959.06;;;-142.53;100.00
4133;BME280;2080;51.038;7.008;2022-08-20T05:39:56;74949.38;;;-142.53;100.00
4133;BME280;2080;51.038;7.008;2022-08-20T05:42:21;74937.72;;;-142.53;100.00
4133;BME280;2080;51.038;7.008;2022-08-20T05:44:46;74949.38;;;-142.53;100.00
4133;BME280;2080;51.038;7.008;2022-08-20T05:47:16;74947.41;;;-142.53;100.00
4133;BME280;2080;51.038;7.008;2022-08-20T05:49:42;74949.38;;;-142.53;100.00
4133;BME280;2080;51.038;7.008;2022-08-20T05:52:10;74941.59;;;-142.53;100.00
4133;BME280;2080;51.038;7.008;2022-08-20T05:54:38;74953.25;;;-142.53;100.00
4133;BME280;2080;51.038;7.008;2022-08-20T05:57:04;74953.25;;;-142.53;100.00
4133;BME280;2080;51.038;7.008;2022-08-20T05:59:31;74949.38;;;-142.53;100.00
4133;BME280;2080;51.038;7.008;2022-08-20T06:02:04;74939.66;;;-142.53;100.00
4133;BME280;2080;51.038;7.008;2022-08-20T06:04:49;74951.31;;;-142.53;100.00
4133;BME280;2080;51.038;7.008;2022-08-20T06:07:14;74953.25;;;-142.53;100.00
4133;BME280;2080;51.038;7.008;2022-08-20T06:09:40;74961.00;;;-142.53;100.00
4133;BME280;2080;51.038;7.008;2022-08-20T06:12:08;74964.88;;;-142.53;100.00
4133;BME280;2080;51.038;7.008;2022-08-20T06:14:33;74974.59;;;-142.53;100.00
4133;BME280;2080;51.038;7.008;2022-08-20T06:19:28;74945.47;;;-142.53;100.00
4133;BME280;2080;51.038;7.008;2022-08-20T06:21:54;74951.31;;;-142.53;100.00
4133;BME280;2080;51.038;7.008;2022-08-20T06:24:20;74945.47;;;-142.53;100.00
4133;BME280;2080;51.038;7.008;2022-08-20T06:26:45;74945.47;;;-142.53;100.00
4133;BME280;2080;51.038;7.008;2022-08-20T06:29:11;74945.47;;;-142.53;100.00
4133;BME280;2080;51.038;7.008;2022-08-20T06:31:38;74945.47;;;-142.53;100.00
4133;BME280;2080;51.038;7.008;2022-08-20T06:34:06;74953.25;;;-142.53;100.00
4133;BME280;2080;51.038;7.008;2022-08-20T06:36:34;74964.88;;;-142.53;100.00
4133;BME280;2080;51.038;7.008;2022-08-20T06:38:59;74964.88;;;-142.53;100.00
4133;BME280;2080;51.038;7.008;2022-08-20T06:41:24;74964.88;;;-142.53;100.00
4133;BME280;2080;51.038;7.008;2022-08-20T06:43:52;74962.94;;;-142.53;100.00
4133;BME280;2080;51.038;7.008;2022-08-20T06:46:20;74962.94;;;-142.53;100.00
4133;BME280;2080;51.038;7.008;2022-08-20T06:48:47;74974.59;;;-142.53;100.00
4133;BME280;2080;51.038;7.008;2022-08-20T06:51:15;74976.53;;;-142.53;100.00
4133;BME280;2080;51.038;7.008;2022-08-20T06:53:42;74980.41;;;-142.53;100.00
4133;BME280;2080;51.038;7.008;2022-08-20T06:56:08;74968.78;;;-142.53;100.00
4133;BME280;2080;51.038;7.008;2022-08-20T06:58:33;74955.19;;;-142.53;100.00
4133;BME280;2080;51.038;7.008;2022-08-20T07:01:00;74957.13;;;-142.53;100.00
4133;BME280;2080;51.038;7.008;2022-08-20T07:03:26;74943.53;;;-142.53;100.00
4133;BME280;2080;51.038;7.008;2022-08-20T07:05:54;74961.00;;;-142.53;100.00
4133;BME280;2080;51.038;7.008;2022-08-20T07:08:19;74968.78;;;-142.53;100.00
4133;BME280;2080;51.038;7.008;2022-08-20T07:10:46;74988.19;;;-142.53;100.00
4133;BME280;2080;51.038;7.008;2022-08-20T07:13:12;74995.97;;;-142.53;100.00
4133;BME280;2080;51.038;7.008;2022-08-20T07:15:40;74992.06;;;-142.53;100.00
4133;BME280;2080;51.038;7.008;2022-08-20T07:18:09;75001.78;;;-142.53;100.00
4133;BME280;2080;51.038;7.008;2022-08-20T07:20:36;74992.06;;;-142.53;100.00
4133;BME280;2080;51.038;7.008;2022-08-20T07:23:04;74992.06;;;-142.53;100.00
4133;BME280;2080;51.038;7.008;2022-08-20T07:25:31;74976.53;;;-142.53;100.00
4133;BME280;2080;51.038;7.008;2022-08-20T07:28:15;74959.06;;;-142.53;100.00
4133;BME280;2080;51.038;7.008;2022-08-20T07:30:43;74984.31;;;-142.53;100.00
4133;BME280;2080;51.038;7.008;2022-08-20T07:33:30;74986.25;;;-142.53;100.00
4133;BME280;2080;51.038;7.008;2022-08-20T07:35:57;74988.19;;;-142.53;100.00
4133;BME280;2080;51.038;7.008;2022-08-20T07:38:25;74972.66;;;-142.53;100.00
4133;BME280;2080;51.038;7.008;2022-08-20T07:40:55;74933.81;;;-142.53;100.00
4133;BME280;2080;51.038;7.008;2022-08-20T07:43:24;74906.66;;;-142.53;100.00
4133;BME280;2080;51.038;7.008;2022-08-20T07:45:51;74871.69;;;-142.53;100.00
4133;BME280;2080;51.038;7.008;2022-08-20T07:48:20;74858.09;;;-142.53;100.00
4133;BME280;2080;51.038;7.008;2022-08-20T07:50:49;74844.53;;;-142.53;100.00
4133;BME280;2080;51.038;7.008;2022-08-20T07:53:15;74832.88;;;-142.53;100.00
4133;BME280;2080;51.038;7.008;2022-08-20T07:55:41;74813.47;;;-142.53;100.00
4133;BME280;2080;51.038;7.008;2022-08-20T07:58:12;74799.88;;;-142.53;100.00
4133;BME280;2080;51.038;7.008;2022-08-20T08:00:41;74813.47;;;-142.53;100.00
4133;BME280;2080;51.038;7.008;2022-08-20T08:03:11;74834.81;;;-142.53;100.00
4133;BME280;2080;51.038;7.008;2022-08-20T08:05:38;74836.75;;;-142.53;100.00
4133;BME280;2080;51.038;7.008;2022-08-20T08:08:08;74840.63;;;-142.53;100.00
4133;BME280;2080;51.038;7.008;2022-08-20T08:10:36;74836.75;;;-142.53;100.00
4133;BME280;2080;51.038;7.008;2022-08-20T08:13:08;74815.41;;;-142.53;100.00
4133;BME280;2080;51.038;7.008;2022-08-20T08:15:38;74807.63;;;-142.53;100.00
4133;BME280;2080;51.038;7.008;2022-08-20T08:18:12;74805.69;;;-142.53;100.00
4133;BME280;2080;51.038;7.008;2022-08-20T08:20:42;74838.69;;;-142.53;100.00
4133;BME280;2080;51.038;7.008;2022-08-20T08:23:10;74852.28;;;-142.53;100.00
4133;BME280;2080;51.038;7.008;2022-08-20T08:25:39;74875.59;;;-142.53;100.00
4133;BME280;2080;51.038;7.008;2022-08-20T08:28:09;74875.59;;;-142.53;100.00
4133;BME280;2080;51.038;7.008;2022-08-20T08:30:40;74881.41;;;-142.53;100.00
4133;BME280;2080;51.038;7.008;2022-08-20T08:33:07;74902.75;;;-142.53;100.00
4133;BME280;2080;51.038;7.008;2022-08-20T08:36:13;74902.75;;;-142.53;100.00
4133;BME280;2080;51.038;7.008;2022-08-20T08:38:44;74881.41;;;-142.53;100.00
4133;BME280;2080;51.038;7.008;2022-08-20T08:41:27;74860.06;;;-142.53;100.00
4133;BME280;2080;51.038;7.008;2022-08-20T08:44:19;74867.81;;;-142.53;100.00
4133;BME280;2080;51.038;7.008;2022-08-20T08:46:50;74879.47;;;-142.53;100.00
4133;BME280;2080;51.038;7.008;2022-08-20T08:49:24;74910.53;;;-142.53;100.00
4133;BME280;2080;51.038;7.008;2022-08-20T08:51:54;74910.53;;;-142.53;100.00
4133;BME280;2080;51.038;7.008;2022-08-20T08:54:24;74937.72;;;-142.53;100.00
4133;BME280;2080;51.038;7.008;2022-08-20T08:56:53;74964.88;;;-142.53;100.00
4133;BME280;2080;51.038;7.008;2022-08-20T08:59:20;74978.47;;;-142.53;100.00
4133;BME280;2080;51.038;7.008;2022-08-20T09:01:52;74976.53;;;-142.53;100.00
4133;BME280;2080;51.038;7.008;2022-08-20T09:04:19;74968.78;;;-142.53;100.00
4133;BME280;2080;51.038;7.008;2022-08-20T09:06:46;74949.38;;;-142.53;100.00
4133;BME280;2080;51.038;7.008;2022-08-20T09:09:21;74947.41;;;-142.53;100.00
4133;BME280;2080;51.038;7.008;2022-08-20T09:11:53;74972.66;;;-142.53;100.00
4133;BME280;2080;51.038;7.008;2022-08-20T09:14:19;74976.53;;;-142.53;100.00
4133;BME280;2080;51.038;7.008;2022-08-20T09:16:45;74988.19;;;-142.53;100.00
4133;BME280;2080;51.038;7.008;2022-08-20T09:19:16;74974.59;;;-142.53;100.00
4133;BME280;2080;51.038;7.008;2022-08-20T09:21:42;74990.13;;;-142.53;100.00
4133;BME280;2080;51.038;7.008;2022-08-20T09:24:08;75019.25;;;-142.53;100.00
4133;BME280;2080;51.038;7.008;2022-08-20T09:26:36;75030.91;;;-142.53;100.00
4133;BME280;2080;51.038;7.008;2022-08-20T09:29:04;75011.50;;;-142.53;100.00
4133;BME280;2080;51.038;7.008;2022-08-20T09:31:29;75011.50;;;-142.53;100.00
4133;BME280;2080;51.038;7.008;2022-08-20T09:34:00;74990.13;;;-142.53;100.00
4133;BME280;2080;51.038;7.008;2022-08-20T09:36:28;74995.97;;;-142.53;100.00
4133;BME280;2080;51.038;7.008;2022-08-20T09:38:53;74994.00;;;-142.53;100.00
4133;BME280;2080;51.038;7.008;2022-08-20T09:41:21;74988.19;;;-142.53;100.00
4133;BME280;2080;51.038;7.008;2022-08-20T09:43:47;74980.41;;;-142.53;100.00
4133;BME280;2080;51.038;7.008;2022-08-20T09:46:12;74990.13;;;-142.53;100.00
4133;BME280;2080;51.038;7.008;2022-08-20T09:48:40;74976.53;;;-142.53;100.00
4133;BME280;2080;51.038;7.008;2022-08-20T09:51:05;74941.59;;;-142.53;100.00
4133;BME280;2080;51.038;7.008;2022-08-20T09:53:31;74891.13;;;-142.53;100.00
4133;BME280;2080;51.038;7.008;2022-08-20T09:55:59;74852.28;;;-142.53;100.00
4133;BME280;2080;51.038;7.008;2022-08-20T10:01:09;74821.22;;;-142.53;100.00
4133;BME280;2080;51.038;7.008;2022-08-20T10:03:35;74797.94;;;-142.53;100.00
4133;BME280;2080;51.038;7.008;2022-08-20T10:06:03;74782.41;;;-142.53;100.00
4133;BME280;2080;51.038;7.008;2022-08-20T10:08:29;74761.03;;;-142.53;97.56
4133;BME280;2080;51.038;7.008;2022-08-20T10:10:56;74757.16;;;-142.53;98.09
4133;BME280;2080;51.038;7.008;2022-08-20T10:13:21;74716.38;;;-142.53;98.83
4133;BME280;2080;51.038;7.008;2022-08-20T10:15:47;74700.84;;;-142.53;93.25
4133;BME280;2080;51.038;7.008;2022-08-20T10:18:15;74716.38;;;-142.53;95.62
4133;BME280;2080;51.038;7.008;2022-08-20T10:20:40;74737.75;;;-142.53;91.24
4133;BME280;2080;51.038;7.008;2022-08-20T10:23:06;74739.69;;;-142.53;90.35
4133;BME280;2080;51.038;7.008;2022-08-20T10:25:31;74743.56;;;-142.53;90.82
4133;BME280;2080;51.038;7.008;2022-08-20T10:27:57;74728.03;;;-142.53;91.75
4133;BME280;2080;51.038;7.008;2022-08-20T10:30:25;74716.38;;;-142.53;90.89
4133;BME280;2080;51.038;7.008;2022-08-20T10:32:51;74675.63;;;-142.53;91.84
4133;BME280;2080;51.038;7.008;2022-08-20T10:35:17;74634.84;;;-142.53;91.40
4133;BME280;2080;51.038;7.008;2022-08-20T10:37:44;74603.78;;;-142.53;90.38
4133;BME280;2080;51.038;7.008;2022-08-20T10:40:13;74596.03;;;-142.53;87.89
4133;BME280;2080;51.038;7.008;2022-08-20T10:42:42;74568.84;;;-142.53;86.94
4133;BME280;2080;51.038;7.008;2022-08-20T10:45:12;74561.06;;;-142.53;86.17
4133;BME280;2080;51.038;7.008;2022-08-20T10:47:43;74561.06;;;-142.53;81.92
4133;BME280;2080;51.038;7.008;2022-08-20T10:50:12;74564.97;;;-142.53;83.24
4133;BME280;2080;51.038;7.008;2022-08-20T10:52:38;74605.72;;;-142.53;82.20
4133;BME280;2080;51.038;7.008;2022-08-20T10:55:04;74638.72;;;-142.53;83.10
4133;BME280;2080;51.038;7.008;2022-08-20T10:57:32;74665.91;;;-142.53;83.22
4133;BME280;2080;51.038;7.008;2022-08-20T10:59:58;74601.84;;;-142.53;83.94
4133;BME280;2080;51.038;7.008;2022-08-20T11:02:25;74568.84;;;-142.53;80.56
4133;BME280;2080;51.038;7.008;2022-08-20T11:04:51;74559.13;;;-142.53;80.96
4133;BME280;2080;51.038;7.008;2022-08-20T11:09:44;74524.19;;;-142.53;81.92
4133;BME280;2080;51.038;7.008;2022-08-20T11:12:10;74467.91;;;-142.53;82.79
4133;BME280;2080;51.038;7.008;2022-08-20T11:14:38;74429.06;;;-142.53;78.43
4133;BME280;2080;51.038;7.008;2022-08-20T11:17:05;74431.00;;;-142.53;75.57
4133;BME280;2080;51.038;7.008;2022-08-20T11:19:40;74475.66;;;-142.53;75.02
4133;BME280;2080;51.038;7.008;2022-08-20T11:22:07;74553.31;;;-142.53;76.41
4133;BME280;2080;51.038;7.008;2022-08-20T11:24:37;74588.25;;;-142.53;78.58
4133;BME280;2080;51.038;7.008;2022-08-20T11:27:05;74597.97;;;-142.53;81.13
4133;BME280;2080;51.038;7.008;2022-08-20T11:29:33;74566.91;;;-142.53;81.44
4133;BME280;2080;51.038;7.008;2022-08-20T11:31:58;74545.56;;;-142.53;78.88
4133;BME280;2080;51.038;7.008;2022-08-20T11:34:23;74491.19;;;-142.53;79.94
4133;BME280;2080;51.038;7.008;2022-08-20T11:36:49;74479.53;;;-142.53;78.90
4133;BME280;2080;51.038;7.008;2022-08-20T11:39:18;74489.25;;;-142.53;76.68
4133;BME280;2080;51.038;7.008;2022-08-20T11:41:46;74537.78;;;-142.53;77.09
4133;BME280;2080;51.038;7.008;2022-08-20T11:44:15;74506.72;;;-142.53;77.33
4133;BME280;2080;51.038;7.008;2022-08-20T11:46:43;74471.78;;;-142.53;74.96
4133;BME280;2080;51.038;7.008;2022-08-20T11:49:09;74436.84;;;-142.53;73.22
4133;BME280;2080;51.038;7.008;2022-08-20T11:51:34;74417.44;;;-142.53;74.00
4133;BME280;2080;51.038;7.008;2022-08-20T11:54:06;74429.06;;;-142.53;68.26
4133;BME280;2080;51.038;7.008;2022-08-20T11:56:31;74465.97;;;-142.53;70.46
4133;BME280;2080;51.038;7.008;2022-08-20T11:58:59;74498.97;;;-142.53;72.14
4133;BME280;2080;51.038;7.008;2022-08-20T12:01:27;74541.66;;;-142.53;74.52
4133;BME280;2080;51.038;7.008;2022-08-20T12:03:55;74590.19;;;-142.53;76.05
4133;BME280;2080;51.038;7.008;2022-08-20T12:06:25;74642.63;;;-142.53;78.99
4133;BME280;2080;51.038;7.008;2022-08-20T12:08:50;74630.97;;;-142.53;81.58
4133;BME280;2080;51.038;7.008;2022-08-20T12:11:16;74625.13;;;-142.53;79.04
4133;BME280;2080;51.038;7.008;2022-08-20T12:13:41;74638.72;;;-142.53;77.05
4133;BME280;2080;51.038;7.008;2022-08-20T12:16:06;74644.56;;;-142.53;78.24
4133;BME280;2080;51.038;7.008;2022-08-20T12:18:32;74596.03;;;-142.53;79.76
4133;BME280;2080;51.038;7.008;2022-08-20T12:20:57;74541.66;;;-142.53;77.03
4133;BME280;2080;51.038;7.008;2022-08-20T12:23:23;74491.19;;;-142.53;75.58
4133;BME280;2080;51.038;7.008;2022-08-20T12:25:48;74469.84;;;-142.53;70.96
4133;BME280;2080;51.038;7.008;2022-08-20T12:28:17;74440.72;;;-142.53;72.27
4133;BME280;2080;51.038;7.008;2022-08-20T12:30:42;74436.84;;;-142.53;69.21
4133;BME280;2080;51.038;7.008;2022-08-20T12:33:10;74390.25;;;-142.53;69.38
4133;BME280;2080;51.038;7.008;2022-08-20T12:35:37;74351.44;;;-142.53;65.45
4133;BME280;2080;51.038;7.008;2022-08-20T12:38:04;74316.47;;;-142.53;63.83
4133;BME280;2080;51.038;7.008;2022-08-20T12:40:31;74289.31;;;-142.53;65.31
4133;BME280;2080;51.038;7.008;2022-08-20T12:42:56;74285.44;;;-142.53;60.32
4133;BME280;2080;51.038;7.008;2022-08-20T12:45:24;74289.31;;;-142.53;60.46
4133;BME280;2080;51.038;7.008;2022-08-20T12:47:49;74269.91;;;-142.53;63.34
4133;BME280;2080;51.038;7.008;2022-08-20T12:50:20;74289.31;;;-142.53;60.87
4133;BME280;2080;51.038;7.008;2022-08-20T12:52:46;74279.59;;;-142.53;60.53
4133;BME280;2080;51.038;7.008;2022-08-20T12:55:14;74277.66;;;-142.53;60.06
4133;BME280;2080;51.038;7.008;2022-08-20T12:57:45;74277.66;;;-142.53;59.20
4133;BME280;2080;51.038;7.008;2022-08-20T13:02:50;74297.06;;;-142.53;57.13
4133;BME280;2080;51.038;7.008;2022-08-20T13:05:16;74324.25;;;-142.53;58.58
4133;BME280;2080;51.038;7.008;2022-08-20T13:07:42;74320.38;;;-142.53;60.09
4133;BME280;2080;51.038;7.008;2022-08-20T13:10:12;74330.06;;;-142.53;57.21
4133;BME280;2080;51.038;7.008;2022-08-20T13:12:38;74312.59;;;-142.53;56.98
4133;BME280;2080;51.038;7.008;2022-08-20T13:15:06;74266.00;;;-142.53;59.23
4133;BME280;2080;51.038;7.008;2022-08-20T13:17:32;74281.53;;;-142.53;56.55